sensor_id;sensor_type;location;lat;lon;timestamp;temperature;humidity
13091;DHT22;6611;52.604;13.438;2022-09-27T00:00:15;13.00;71.70
13091;DHT22;6611;52.604;13.438;2022-09-27T00:05:18;12.91;72.20
13091;DHT22;6611;52.604;13.438;2022-09-27T00:10:19;12.94;71.98
13091;DHT22;6611;52.604;13.438;2022-09-27T00:15:21;12.94;72.24
13091;DHT22;6611;52.604;13.438;2022-09-27T00:20:24;12.93;71.96
13091;DHT22;6611;52.604;13.438;2022-09-27T00:25:25;12.90;72.18
13091;DHT22;6611;52.604;13.438;2022-09-27T00:30:27;12.96;71.71
13091;DHT22;6611;52.604;13.438;2022-09-27T00:35:30;12.96;71.74
13091;DHT22;6611;52.604;13.438;2022-09-27T00:40:32;12.87;71.80
13091;DHT22;6611;52.604;13.438;2022-09-27T00:45:33;12.81;72.09
13091;DHT22;6611;52.604;13.438;2022-09-27T00:50:38;12.91;71.38
13091;DHT22;6611;52.604;13.438;2022-09-27T00:55:43;12.81;71.67
13091;DHT22;6611;52.604;13.438;2022-09-27T01:00:48;12.84;71.15
13091;DHT22;6611;52.604;13.438;2022-09-27T01:05:53;12.80;71.49
13091;DHT22;6611;52.604;13.438;2022-09-27T01:11:10;12.76;71.52
13091;DHT22;6611;52.604;13.438;2022-09-27T01:16:19;12.84;71.07
13091;DHT22;6611;52.604;13.438;2022-09-27T01:21:50;12.88;71.39
13091;DHT22;6611;52.604;13.438;2022-09-27T01:27:13;12.80;71.38
13091;DHT22;6611;52.604;13.438;2022-09-27T01:32:24;12.76;71.21
13091;DHT22;6611;52.604;13.438;2022-09-27T01:37:34;12.59;72.07
13091;DHT22;6611;52.604;13.438;2022-09-27T01:42:40;12.67;71.45
13091;DHT22;6611;52.604;13.438;2022-09-27T01:47:51;12.63;71.93
13091;DHT22;6611;52.604;13.438;2022-09-27T01:52:58;12.69;71.58
13091;DHT22;6611;52.604;13.438;2022-09-27T01:58:06;12.60;71.82
13091;DHT22;6611;52.604;13.438;2022-09-27T02:03:14;12.66;71.54
13091;DHT22;6611;52.604;13.438;2022-09-27T02:08:20;12.67;71.57
13091;DHT22;6611;52.604;13.438;2022-09-27T02:13:25;12.70;71.44
13091;DHT22;6611;52.604;13.438;2022-09-27T02:18:33;12.72;71.17
13091;DHT22;6611;52.604;13.438;2022-09-27T02:23:40;12.77;71.17
13091;DHT22;6611;52.604;13.438;2022-09-27T02:28:46;12.77;70.80
13091;DHT22;6611;52.604;13.438;2022-09-27T02:33:54;12.79;71.05
13091;DHT22;6611;52.604;13.438;2022-09-27T02:38:57;12.80;70.87
13091;DHT22;6611;52.604;13.438;2022-09-27T02:44:02;12.86;71.05
13091;DHT22;6611;52.604;13.438;2022-09-27T02:49:15;12.88;71.39
13091;DHT22;6611;52.604;13.438;2022-09-27T02:54:26;12.81;71.11
13091;DHT22;6611;52.604;13.438;2022-09-27T02:59:40;12.90;71.25
13091;DHT22;6611;52.604;13.438;2022-09-27T03:04:49;12.93;71.13
13091;DHT22;6611;52.604;13.438;2022-09-27T03:09:54;12.86;71.40
13091;DHT22;6611;52.604;13.438;2022-09-27T03:14:57;12.87;71.16
13091;DHT22;6611;52.604;13.438;2022-09-27T03:20:00;12.93;71.22
13091;DHT22;6611;52.604;13.438;2022-09-27T03:25:03;12.87;71.37
13091;DHT22;6611;52.604;13.438;2022-09-27T03:30:05;12.90;71.59
13091;DHT22;6611;52.604;13.438;2022-09-27T03:35:08;12.93;71.39
13091;DHT22;6611;52.604;13.438;2022-09-27T03:40:10;12.97;71.05
13091;DHT22;6611;52.604;13.438;2022-09-27T03:45:12;12.91;71.45
13091;DHT22;6611;52.604;13.438;2022-09-27T03:50:15;12.83;71.36
13091;DHT22;6611;52.604;13.438;2022-09-27T03:55:17;12.80;72.40
13091;DHT22;6611;52.604;13.438;2022-09-27T04:00:19;12.75;73.40
13091;DHT22;6611;52.604;13.438;2022-09-27T04:05:22;12.67;73.24
13091;DHT22;6611;52.604;13.438;2022-09-27T04:10:24;12.64;73.41
13091;DHT22;6611;52.604;13.438;2022-09-27T04:15:25;12.66;74.24
13091;DHT22;6611;52.604;13.438;2022-09-27T04:20:28;12.55;74.71
13091;DHT22;6611;52.604;13.438;2022-09-27T04:25:30;12.49;75.15
13091;DHT22;6611;52.604;13.438;2022-09-27T04:30:32;12.46;75.94
13091;DHT22;6611;52.604;13.438;2022-09-27T04:35:35;12.46;76.56
13091;DHT22;6611;52.604;13.438;2022-09-27T04:40:54;12.41;76.39
13091;DHT22;6611;52.604;13.438;2022-09-27T04:45:56;12.35;76.67
13091;DHT22;6611;52.604;13.438;2022-09-27T04:51:00;12.36;77.51
13091;DHT22;6611;52.604;13.438;2022-09-27T04:56:02;12.21;78.52
13091;DHT22;6611;52.604;13.438;2022-09-27T05:01:05;12.24;79.26
13091;DHT22;6611;52.604;13.438;2022-09-27T05:06:09;12.18;80.75
13091;DHT22;6611;52.604;13.438;2022-09-27T05:11:11;12.14;80.94
13091;DHT22;6611;52.604;13.438;2022-09-27T05:16:13;12.02;82.08
13091;DHT22;6611;52.604;13.438;2022-09-27T05:21:16;11.83;82.39
13091;DHT22;6611;52.604;13.438;2022-09-27T05:26:17;11.91;83.08
13091;DHT22;6611;52.604;13.438;2022-09-27T05:31:19;11.95;83.20
13091;DHT22;6611;52.604;13.438;2022-09-27T05:36:22;11.98;83.85
13091;DHT22;6611;52.604;13.438;2022-09-27T05:41:23;11.83;84.86
13091;DHT22;6611;52.604;13.438;2022-09-27T05:46:25;11.79;84.99
13091;DHT22;6611;52.604;13.438;2022-09-27T05:51:28;11.80;85.62
13091;DHT22;6611;52.604;13.438;2022-09-27T05:56:30;11.76;86.00
13091;DHT22;6611;52.604;13.438;2022-09-27T06:01:31;11.87;85.65
13091;DHT22;6611;52.604;13.438;2022-09-27T06:06:36;11.70;86.51
13091;DHT22;6611;52.604;13.438;2022-09-27T06:11:38;11.72;86.92
13091;DHT22;6611;52.604;13.438;2022-09-27T06:16:40;11.72;86.65
13091;DHT22;6611;52.604;13.438;2022-09-27T06:21:42;11.62;87.55
13091;DHT22;6611;52.604;13.438;2022-09-27T06:26:44;11.65;87.60
13091;DHT22;6611;52.604;13.438;2022-09-27T06:31:46;11.70;87.09
13091;DHT22;6611;52.604;13.438;2022-09-27T06:36:49;11.84;87.06
13091;DHT22;6611;52.604;13.438;2022-09-27T06:41:53;11.74;87.13
13091;DHT22;6611;52.604;13.438;2022-09-27T06:46:57;11.77;87.55
13091;DHT22;6611;52.604;13.438;2022-09-27T06:52:00;11.86;87.10
13091;DHT22;6611;52.604;13.438;2022-09-27T06:57:01;11.87;87.08
13091;DHT22;6611;52.604;13.438;2022-09-27T07:02:03;11.97;87.27
13091;DHT22;6611;52.604;13.438;2022-09-27T07:07:06;11.98;86.97
13091;DHT22;6611;52.604;13.438;2022-09-27T07:12:08;11.91;87.70
13091;DHT22;6611;52.604;13.438;2022-09-27T07:17:12;11.76;88.07
13091;DHT22;6611;52.604;13.438;2022-09-27T07:22:15;11.94;87.90
13091;DHT22;6611;52.604;13.438;2022-09-27T07:27:17;12.05;87.58
13091;DHT22;6611;52.604;13.438;2022-09-27T07:32:19;12.22;87.42
13091;DHT22;6611;52.604;13.438;2022-09-27T07:37:22;12.24;87.26
13091;DHT22;6611;52.604;13.438;2022-09-27T07:42:23;12.01;87.39
13091;DHT22;6611;52.604;13.438;2022-09-27T07:47:25;12.05;87.41
13091;DHT22;6611;52.604;13.438;2022-09-27T07:52:28;11.98;88.42
13091;DHT22;6611;52.604;13.438;2022-09-27T07:57:30;12.07;88.16
13091;DHT22;6611;52.604;13.438;2022-09-27T08:02:32;12.05;87.75
13091;DHT22;6611;52.604;13.438;2022-09-27T08:07:34;12.07;87.72
13091;DHT22;6611;52.604;13.438;2022-09-27T08:12:36;12.05;87.98
13091;DHT22;6611;52.604;13.438;2022-09-27T08:17:38;12.01;88.09
13091;DHT22;6611;52.604;13.438;2022-09-27T08:22:41;11.93;88.90
13091;DHT22;6611;52.604;13.438;2022-09-27T08:27:43;12.08;88.35
13091;DHT22;6611;52.604;13.438;2022-09-27T08:32:44;12.11;88.13
13091;DHT22;6611;52.604;13.438;2022-09-27T08:37:53;12.18;87.82
13091;DHT22;6611;52.604;13.438;2022-09-27T08:43:00;11.74;89.02
13091;DHT22;6611;52.604;13.438;2022-09-27T08:48:04;11.93;89.08
13091;DHT22;6611;52.604;13.438;2022-09-27T08:53:22;12.14;88.60
13091;DHT22;6611;52.604;13.438;2022-09-27T08:58:27;11.97;88.37
13091;DHT22;6611;52.604;13.438;2022-09-27T09:03:32;12.11;89.66
13091;DHT22;6611;52.604;13.438;2022-09-27T09:08:44;12.17;88.25
13091;DHT22;6611;52.604;13.438;2022-09-27T09:19:38;12.11;88.66
13091;DHT22;6611;52.604;13.438;2022-09-27T09:24:53;12.36;88.93
13091;DHT22;6611;52.604;13.438;2022-09-27T09:30:13;12.52;87.54
13091;DHT22;6611;52.604;13.438;2022-09-27T09:35:21;12.59;87.42
13091;DHT22;6611;52.604;13.438;2022-09-27T09:40:28;12.52;87.52
13091;DHT22;6611;52.604;13.438;2022-09-27T09:45:35;12.49;87.88
13091;DHT22;6611;52.604;13.438;2022-09-27T09:50:44;12.67;88.04
13091;DHT22;6611;52.604;13.438;2022-09-27T09:55:51;12.77;87.15
13091;DHT22;6611;52.604;13.438;2022-09-27T10:01:00;13.11;87.00
13091;DHT22;6611;52.604;13.438;2022-09-27T10:06:09;13.03;86.09
13091;DHT22;6611;52.604;13.438;2022-09-27T10:11:19;13.07;86.60
13091;DHT22;6611;52.604;13.438;2022-09-27T10:16:21;13.26;85.38
13091;DHT22;6611;52.604;13.438;2022-09-27T10:21:27;13.35;85.14
13091;DHT22;6611;52.604;13.438;2022-09-27T10:26:31;13.26;85.17
13091;DHT22;6611;52.604;13.438;2022-09-27T10:31:34;13.50;85.93
13091;DHT22;6611;52.604;13.438;2022-09-27T10:36:37;13.94;83.41
13091;DHT22;6611;52.604;13.438;2022-09-27T10:41:40;13.60;82.20
13091;DHT22;6611;52.604;13.438;2022-09-27T10:46:43;13.53;84.05
13091;DHT22;6611;52.604;13.438;2022-09-27T10:51:48;13.48;84.04
13091;DHT22;6611;52.604;13.438;2022-09-27T10:56:57;13.42;83.40
13091;DHT22;6611;52.604;13.438;2022-09-27T11:01:59;13.34;82.80
13091;DHT22;6611;52.604;13.438;2022-09-27T11:07:13;13.50;83.95
13091;DHT22;6611;52.604;13.438;2022-09-27T11:12:17;13.62;83.33
13091;DHT22;6611;52.604;13.438;2022-09-27T11:17:26;13.52;82.45
13091;DHT22;6611;52.604;13.438;2022-09-27T11:22:59;13.29;84.32
13091;DHT22;6611;52.604;13.438;2022-09-27T11:28:18;13.05;85.69
13091;DHT22;6611;52.604;13.438;2022-09-27T11:33:35;13.11;87.54
13091;DHT22;6611;52.604;13.438;2022-09-27T11:38:50;13.08;87.86
13091;DHT22;6611;52.604;13.438;2022-09-27T11:44:15;13.07;86.95
13091;DHT22;6611;52.604;13.438;2022-09-27T11:55:00;13.21;86.42
13091;DHT22;6611;52.604;13.438;2022-09-27T12:00:18;13.14;87.70
13091;DHT22;6611;52.604;13.438;2022-09-27T12:05:31;12.87;86.63
13091;DHT22;6611;52.604;13.438;2022-09-27T12:10:37;12.55;84.57
13091;DHT22;6611;52.604;13.438;2022-09-27T12:15:43;12.11;86.58
13091;DHT22;6611;52.604;13.438;2022-09-27T12:20:48;11.95;87.60
13091;DHT22;6611;52.604;13.438;2022-09-27T12:25:55;11.82;88.85
13091;DHT22;6611;52.604;13.438;2022-09-27T12:31:03;11.74;89.64
13091;DHT22;6611;52.604;13.438;2022-09-27T12:36:09;11.74;90.46
13091;DHT22;6611;52.604;13.438;2022-09-27T12:41:19;11.79;90.03
13091;DHT22;6611;52.604;13.438;2022-09-27T12:46:31;11.87;90.49
13091;DHT22;6611;52.604;13.438;2022-09-27T12:51:40;12.21;89.66
13091;DHT22;6611;52.604;13.438;2022-09-27T12:56:48;12.64;89.07
13091;DHT22;6611;52.604;13.438;2022-09-27T13:02:06;13.10;88.20
13091;DHT22;6611;52.604;13.438;2022-09-27T13:07:20;13.42;87.16
13091;DHT22;6611;52.604;13.438;2022-09-27T13:12:27;13.83;85.86
13091;DHT22;6611;52.604;13.438;2022-09-27T13:17:50;13.56;86.28
13091;DHT22;6611;52.604;13.438;2022-09-27T13:22:52;13.35;86.46
13091;DHT22;6611;52.604;13.438;2022-09-27T13:27:54;13.46;86.40
13091;DHT22;6611;52.604;13.438;2022-09-27T13:33:27;13.31;86.81
13091;DHT22;6611;52.604;13.438;2022-09-27T13:38:32;13.03;86.07
13091;DHT22;6611;52.604;13.438;2022-09-27T13:43:45;12.79;85.54
13091;DHT22;6611;52.604;13.438;2022-09-27T13:48:53;12.88;86.56
13091;DHT22;6611;52.604;13.438;2022-09-27T13:53:58;13.07;85.61
13091;DHT22;6611;52.604;13.438;2022-09-27T13:59:02;12.98;85.90
13091;DHT22;6611;52.604;13.438;2022-09-27T14:04:15;13.01;87.23
13091;DHT22;6611;52.604;13.438;2022-09-27T14:09:19;13.12;85.48
13091;DHT22;6611;52.604;13.438;2022-09-27T14:14:23;13.19;85.70
13091;DHT22;6611;52.604;13.438;2022-09-27T14:19:26;13.08;86.49
13091;DHT22;6611;52.604;13.438;2022-09-27T14:24:30;13.14;85.97
13091;DHT22;6611;52.604;13.438;2022-09-27T14:29:39;13.16;86.27
13091;DHT22;6611;52.604;13.438;2022-09-27T14:34:42;13.24;85.92
13091;DHT22;6611;52.604;13.438;2022-09-27T14:39:45;13.29;85.71
13091;DHT22;6611;52.604;13.438;2022-09-27T14:44:55;13.41;85.40
13091;DHT22;6611;52.604;13.438;2022-09-27T14:50:15;13.38;84.06
13091;DHT22;6611;52.604;13.438;2022-09-27T14:55:19;13.16;84.33
13091;DHT22;6611;52.604;13.438;2022-09-27T15:00:22;13.01;84.57
13091;DHT22;6611;52.604;13.438;2022-09-27T15:05:29;12.83;85.42
13091;DHT22;6611;52.604;13.438;2022-09-27T15:10:34;12.63;87.16
13091;DHT22;6611;52.604;13.438;2022-09-27T15:15:37;12.60;88.04
13091;DHT22;6611;52.604;13.438;2022-09-27T15:20:51;12.48;88.17
13091;DHT22;6611;52.604;13.438;2022-09-27T15:26:02;12.49;88.67
13091;DHT22;6611;52.604;13.438;2022-09-27T15:31:05;12.52;88.96
13091;DHT22;6611;52.604;13.438;2022-09-27T15:36:10;12.41;89.41
13091;DHT22;6611;52.604;13.438;2022-09-27T15:41:15;12.43;89.13
13091;DHT22;6611;52.604;13.438;2022-09-27T15:46:32;12.34;89.37
13091;DHT22;6611;52.604;13.438;2022-09-27T15:51:40;12.36;89.20
13091;DHT22;6611;52.604;13.438;2022-09-27T15:56:42;12.28;88.64
13091;DHT22;6611;52.604;13.438;2022-09-27T16:01:43;12.32;87.83
13091;DHT22;6611;52.604;13.438;2022-09-27T16:06:46;12.28;88.58
13091;DHT22;6611;52.604;13.438;2022-09-27T16:11:49;12.24;88.91
13091;DHT22;6611;52.604;13.438;2022-09-27T16:16:52;12.08;88.22
13091;DHT22;6611;52.604;13.438;2022-09-27T16:21:55;11.93;86.38
13091;DHT22;6611;52.604;13.438;2022-09-27T16:26:57;11.72;85.86
13091;DHT22;6611;52.604;13.438;2022-09-27T16:31:59;11.69;85.44
13091;DHT22;6611;52.604;13.438;2022-09-27T16:37:02;11.56;86.45
13091;DHT22;6611;52.604;13.438;2022-09-27T16:42:05;11.55;86.05
13091;DHT22;6611;52.604;13.438;2022-09-27T16:47:07;11.46;86.44
13091;DHT22;6611;52.604;13.438;2022-09-27T16:52:10;11.39;87.41
13091;DHT22;6611;52.604;13.438;2022-09-27T16:57:12;11.34;88.23
13091;DHT22;6611;52.604;13.438;2022-09-27T17:02:13;11.22;88.15
13091;DHT22;6611;52.604;13.438;2022-09-27T17:07:16;11.14;87.91
13091;DHT22;6611;52.604;13.438;2022-09-27T17:12:18;11.17;87.54
13091;DHT22;6611;52.604;13.438;2022-09-27T17:17:20;11.24;87.77
13091;DHT22;6611;52.604;13.438;2022-09-27T17:22:23;11.15;88.25
13091;DHT22;6611;52.604;13.438;2022-09-27T17:27:26;11.10;88.49
13091;DHT22;6611;52.604;13.438;2022-09-27T17:32:28;11.10;87.82
13091;DHT22;6611;52.604;13.438;2022-09-27T17:37:31;11.04;88.02
13091;DHT22;6611;52.604;13.438;2022-09-27T17:42:33;10.92;88.33
13091;DHT22;6611;52.604;13.438;2022-09-27T17:47:34;10.83;88.20
13091;DHT22;6611;52.604;13.438;2022-09-27T17:52:56;10.72;89.08
13091;DHT22;6611;52.604;13.438;2022-09-27T17:57:57;10.60;88.90
13091;DHT22;6611;52.604;13.438;2022-09-27T18:03:00;10.59;89.14
13091;DHT22;6611;52.604;13.438;2022-09-27T18:08:03;10.59;89.04
13091;DHT22;6611;52.604;13.438;2022-09-27T18:13:05;10.48;89.14
13091;DHT22;6611;52.604;13.438;2022-09-27T18:18:06;10.51;89.15
13091;DHT22;6611;52.604;13.438;2022-09-27T18:23:09;10.46;88.62
13091;DHT22;6611;52.604;13.438;2022-09-27T18:28:11;10.52;88.20
13091;DHT22;6611;52.604;13.438;2022-09-27T18:33:13;10.45;88.01
13091;DHT22;6611;52.604;13.438;2022-09-27T18:38:16;10.51;88.41
13091;DHT22;6611;52.604;13.438;2022-09-27T18:43:18;10.48;88.49
13091;DHT22;6611;52.604;13.438;2022-09-27T18:48:19;10.49;88.55
13091;DHT22;6611;52.604;13.438;2022-09-27T18:53:22;10.52;88.23
13091;DHT22;6611;52.604;13.438;2022-09-27T18:58:23;10.53;87.75
13091;DHT22;6611;52.604;13.438;2022-09-27T19:03:26;10.55;87.64
13091;DHT22;6611;52.604;13.438;2022-09-27T19:08:29;10.42;88.01
13091;DHT22;6611;52.604;13.438;2022-09-27T19:13:30;10.40;88.08
13091;DHT22;6611;52.604;13.438;2022-09-27T19:18:32;10.34;88.61
13091;DHT22;6611;52.604;13.438;2022-09-27T19:23:36;10.41;88.30
13091;DHT22;6611;52.604;13.438;2022-09-27T19:28:39;10.32;88.43
13091;DHT22;6611;52.604;13.438;2022-09-27T19:33:40;10.24;88.52
13091;DHT22;6611;52.604;13.438;2022-09-27T19:38:44;10.18;88.50
13091;DHT22;6611;52.604;13.438;2022-09-27T19:43:49;10.22;88.69
13091;DHT22;6611;52.604;13.438;2022-09-27T19:48:51;10.14;88.76
13091;DHT22;6611;52.604;13.438;2022-09-27T19:53:55;10.13;88.63
13091;DHT22;6611;52.604;13.438;2022-09-27T19:58:57;10.07;88.18
13091;DHT22;6611;52.604;13.438;2022-09-27T20:03:58;10.03;88.25
13091;DHT22;6611;52.604;13.438;2022-09-27T20:09:01;9.97;88.13
13091;DHT22;6611;52.604;13.438;2022-09-27T20:14:03;9.97;87.85
13091;DHT22;6611;52.604;13.438;2022-09-27T20:19:04;9.90;87.71
13091;DHT22;6611;52.604;13.438;2022-09-27T20:24:08;9.79;87.96
13091;DHT22;6611;52.604;13.438;2022-09-27T20:29:09;9.68;88.61
13091;DHT22;6611;52.604;13.438;2022-09-27T20:34:12;9.66;88.72
13091;DHT22;6611;52.604;13.438;2022-09-27T20:39:16;9.75;87.87
13091;DHT22;6611;52.604;13.438;2022-09-27T20:44:18;9.73;87.84
13091;DHT22;6611;52.604;13.438;2022-09-27T20:49:20;9.71;88.52
13091;DHT22;6611;52.604;13.438;2022-09-27T20:54:23;9.71;88.58
13091;DHT22;6611;52.604;13.438;2022-09-27T20:59:25;9.89;88.23
13091;DHT22;6611;52.604;13.438;2022-09-27T21:04:26;9.98;87.83
13091;DHT22;6611;52.604;13.438;2022-09-27T21:09:30;10.06;87.35
13091;DHT22;6611;52.604;13.438;2022-09-27T21:14:33;10.25;85.81
13091;DHT22;6611;52.604;13.438;2022-09-27T21:19:35;10.31;85.91
13091;DHT22;6611;52.604;13.438;2022-09-27T21:24:37;10.14;86.29
13091;DHT22;6611;52.604;13.438;2022-09-27T21:29:39;10.14;86.65
13091;DHT22;6611;52.604;13.438;2022-09-27T21:34:40;10.14;86.28
13091;DHT22;6611;52.604;13.438;2022-09-27T21:39:43;10.15;86.23
13091;DHT22;6611;52.604;13.438;2022-09-27T21:44:45;10.10;86.27
13091;DHT22;6611;52.604;13.438;2022-09-27T21:49:47;10.15;85.53
13091;DHT22;6611;52.604;13.438;2022-09-27T21:54:50;10.17;85.37
13091;DHT22;6611;52.604;13.438;2022-09-27T21:59:51;10.21;84.87
13091;DHT22;6611;52.604;13.438;2022-09-27T22:04:53;10.14;86.05
13091;DHT22;6611;52.604;13.438;2022-09-27T22:09:56;9.93;86.82
13091;DHT22;6611;52.604;13.438;2022-09-27T22:14:57;9.94;86.64
13091;DHT22;6611;52.604;13.438;2022-09-27T22:19:59;9.98;86.20
13091;DHT22;6611;52.604;13.438;2022-09-27T22:25:02;9.91;87.10
13091;DHT22;6611;52.604;13.438;2022-09-27T22:30:04;9.94;85.99
13091;DHT22;6611;52.604;13.438;2022-09-27T22:35:07;9.79;86.84
13091;DHT22;6611;52.604;13.438;2022-09-27T22:40:10;9.68;87.09
13091;DHT22;6611;52.604;13.438;2022-09-27T22:45:12;9.65;86.95
13091;DHT22;6611;52.604;13.438;2022-09-27T22:50:13;9.62;86.88
13091;DHT22;6611;52.604;13.438;2022-09-27T22:55:16;9.58;87.15
13091;DHT22;6611;52.604;13.438;2022-09-27T23:00:18;9.51;87.08
13091;DHT22;6611;52.604;13.438;2022-09-27T23:05:19;9.41;87.45
13091;DHT22;6611;52.604;13.438;2022-09-27T23:10:22;9.31;87.65
13091;DHT22;6611;52.604;13.438;2022-09-27T23:15:24;9.32;87.50
13091;DHT22;6611;52.604;13.438;2022-09-27T23:20:25;9.20;88.24
13091;DHT22;6611;52.604;13.438;2022-09-27T23:25:28;9.23;88.93
13091;DHT22;6611;52.604;13.438;2022-09-27T23:30:30;9.32;88.25
13091;DHT22;6611;52.604;13.438;2022-09-27T23:35:31;9.37;88.21
13091;DHT22;6611;52.604;13.438;2022-09-27T23:40:34;9.35;88.59
13091;DHT22;6611;52.604;13.438;2022-09-27T23:45:36;9.35;88.51
13091;DHT22;6611;52.604;13.438;2022-09-27T23:50:41;9.39;88.98
13091;DHT22;6611;52.604;13.438;2022-09-27T23:55:44;9.31;89.88
